sensor_id;sensor_type;location;lat;lon;timestamp;P1;durP1;ratioP1;P2;durP2;ratioP2
63005;SDS011;53704;52.532;6.426;2023-02-03T00:00:21;11.25;;;3.35;;
63005;SDS011;53704;52.532;6.426;2023-02-03T00:02:47;18.15;;;3.85;;
63005;SDS011;53704;52.532;6.426;2023-02-03T00:05:12;19.67;;;3.60;;
63005;SDS011;53704;52.532;6.426;2023-02-03T00:07:37;13.90;;;3.50;;
63005;SDS011;53704;52.532;6.426;2023-02-03T00:10:04;19.33;;;3.47;;
63005;SDS011;53704;52.532;6.426;2023-02-03T00:12:30;9.10;;;3.13;;
63005;SDS011;53704;52.532;6.426;2023-02-03T00:14:56;16.35;;;3.47;;
63005;SDS011;53704;52.532;6.426;2023-02-03T00:17:22;10.23;;;3.15;;
63005;SDS011;53704;52.532;6.426;2023-02-03T00:19:47;22.52;;;3.08;;
63005;SDS011;53704;52.532;6.426;2023-02-03T00:22:14;13.68;;;3.13;;
63005;SDS011;53704;52.532;6.426;2023-02-03T00:24:39;12.63;;;2.97;;
63005;SDS011;53704;52.532;6.426;2023-02-03T00:27:04;14.25;;;3.00;;
63005;SDS011;53704;52.532;6.426;2023-02-03T00:29:30;11.60;;;2.83;;
63005;SDS011;53704;52.532;6.426;2023-02-03T00:31:55;13.52;;;3.25;;
63005;SDS011;53704;52.532;6.426;2023-02-03T00:34:22;15.32;;;3.55;;
63005;SDS011;53704;52.532;6.426;2023-02-03T00:36:52;19.98;;;3.80;;
63005;SDS011;53704;52.532;6.426;2023-02-03T00:39:17;22.23;;;3.53;;
63005;SDS011;53704;52.532;6.426;2023-02-03T00:41:42;23.13;;;4.68;;
63005;SDS011;53704;52.532;6.426;2023-02-03T00:44:08;12.57;;;3.38;;
63005;SDS011;53704;52.532;6.426;2023-02-03T00:46:34;12.18;;;3.47;;
63005;SDS011;53704;52.532;6.426;2023-02-03T00:49:03;11.77;;;3.40;;
63005;SDS011;53704;52.532;6.426;2023-02-03T00:51:28;17.48;;;3.35;;
63005;SDS011;53704;52.532;6.426;2023-02-03T00:53:54;19.67;;;3.72;;
63005;SDS011;53704;52.532;6.426;2023-02-03T00:56:19;18.10;;;4.22;;
63005;SDS011;53704;52.532;6.426;2023-02-03T00:58:45;16.33;;;3.47;;
63005;SDS011;53704;52.532;6.426;2023-02-03T01:01:10;17.42;;;3.70;;
63005;SDS011;53704;52.532;6.426;2023-02-03T01:03:36;19.13;;;3.60;;
63005;SDS011;53704;52.532;6.426;2023-02-03T01:06:12;14.45;;;3.13;;
63005;SDS011;53704;52.532;6.426;2023-02-03T01:08:40;15.18;;;3.45;;
63005;SDS011;53704;52.532;6.426;2023-02-03T01:11:09;24.02;;;4.35;;
63005;SDS011;53704;52.532;6.426;2023-02-03T01:13:36;14.25;;;3.55;;
63005;SDS011;53704;52.532;6.426;2023-02-03T01:16:02;12.40;;;3.70;;
63005;SDS011;53704;52.532;6.426;2023-02-03T01:18:31;14.57;;;4.13;;
63005;SDS011;53704;52.532;6.426;2023-02-03T01:20:56;14.32;;;3.65;;
63005;SDS011;53704;52.532;6.426;2023-02-03T01:23:22;14.35;;;3.03;;
63005;SDS011;53704;52.532;6.426;2023-02-03T01:25:47;18.35;;;3.10;;
63005;SDS011;53704;52.532;6.426;2023-02-03T01:28:12;12.85;;;3.40;;
63005;SDS011;53704;52.532;6.426;2023-02-03T01:30:38;13.27;;;2.70;;
63005;SDS011;53704;52.532;6.426;2023-02-03T01:33:03;12.90;;;3.30;;
63005;SDS011;53704;52.532;6.426;2023-02-03T01:35:29;13.00;;;3.35;;
63005;SDS011;53704;52.532;6.426;2023-02-03T01:37:54;14.73;;;2.97;;
63005;SDS011;53704;52.532;6.426;2023-02-03T01:40:19;15.10;;;3.22;;
63005;SDS011;53704;52.532;6.426;2023-02-03T01:42:45;12.15;;;3.40;;
63005;SDS011;53704;52.532;6.426;2023-02-03T01:45:10;21.38;;;3.88;;
63005;SDS011;53704;52.532;6.426;2023-02-03T01:47:42;13.13;;;3.13;;
63005;SDS011;53704;52.532;6.426;2023-02-03T01:50:20;16.45;;;3.63;;
63005;SDS011;53704;52.532;6.426;2023-02-03T01:52:50;6.85;;;2.47;;
63005;SDS011;53704;52.532;6.426;2023-02-03T01:55:44;11.65;;;3.55;;
63005;SDS011;53704;52.532;6.426;2023-02-03T01:58:17;7.43;;;2.70;;
63005;SDS011;53704;52.532;6.426;2023-02-03T02:00:46;18.55;;;3.20;;
63005;SDS011;53704;52.532;6.426;2023-02-03T02:03:13;21.45;;;3.58;;
63005;SDS011;53704;52.532;6.426;2023-02-03T02:05:47;19.48;;;3.45;;
63005;SDS011;53704;52.532;6.426;2023-02-03T02:08:17;19.05;;;3.58;;
63005;SDS011;53704;52.532;6.426;2023-02-03T02:10:46;16.33;;;2.88;;
63005;SDS011;53704;52.532;6.426;2023-02-03T02:13:12;14.43;;;3.05;;
63005;SDS011;53704;52.532;6.426;2023-02-03T02:35:57;11.18;;;3.08;;
63005;SDS011;53704;52.532;6.426;2023-02-03T02:38:49;14.45;;;2.65;;
63005;SDS011;53704;52.532;6.426;2023-02-03T02:41:19;12.38;;;2.88;;
63005;SDS011;53704;52.532;6.426;2023-02-03T02:44:08;10.95;;;2.15;;
63005;SDS011;53704;52.532;6.426;2023-02-03T02:46:50;15.80;;;2.30;;
63005;SDS011;53704;52.532;6.426;2023-02-03T02:49:19;18.05;;;3.28;;
63005;SDS011;53704;52.532;6.426;2023-02-03T02:51:49;15.23;;;2.47;;
63005;SDS011;53704;52.532;6.426;2023-02-03T02:54:17;5.45;;;2.28;;
63005;SDS011;53704;52.532;6.426;2023-02-03T02:56:48;8.95;;;2.33;;
63005;SDS011;53704;52.532;6.426;2023-02-03T02:59:20;8.35;;;2.40;;
63005;SDS011;53704;52.532;6.426;2023-02-03T03:01:45;10.82;;;2.70;;
63005;SDS011;53704;52.532;6.426;2023-02-03T03:04:10;9.38;;;2.78;;
63005;SDS011;53704;52.532;6.426;2023-02-03T03:06:43;15.68;;;2.95;;
63005;SDS011;53704;52.532;6.426;2023-02-03T03:09:19;9.55;;;2.15;;
63005;SDS011;53704;52.532;6.426;2023-02-03T03:11:56;11.45;;;2.63;;
63005;SDS011;53704;52.532;6.426;2023-02-03T03:14:26;6.40;;;1.95;;
63005;SDS011;53704;52.532;6.426;2023-02-03T03:16:56;14.07;;;2.10;;
63005;SDS011;53704;52.532;6.426;2023-02-03T03:19:37;12.68;;;2.55;;
63005;SDS011;53704;52.532;6.426;2023-02-03T03:22:06;12.10;;;2.60;;
63005;SDS011;53704;52.532;6.426;2023-02-03T03:24:39;17.58;;;2.50;;
63005;SDS011;53704;52.532;6.426;2023-02-03T03:27:11;10.70;;;1.80;;
63005;SDS011;53704;52.532;6.426;2023-02-03T03:29:43;9.73;;;2.50;;
63005;SDS011;53704;52.532;6.426;2023-02-03T03:32:13;8.77;;;1.95;;
63005;SDS011;53704;52.532;6.426;2023-02-03T03:34:39;9.32;;;1.88;;
63005;SDS011;53704;52.532;6.426;2023-02-03T03:37:08;3.63;;;1.40;;
63005;SDS011;53704;52.532;6.426;2023-02-03T03:42:18;9.68;;;1.92;;
63005;SDS011;53704;52.532;6.426;2023-02-03T03:44:53;13.90;;;2.10;;
63005;SDS011;53704;52.532;6.426;2023-02-03T03:47:26;8.55;;;1.95;;
63005;SDS011;53704;52.532;6.426;2023-02-03T03:49:56;11.48;;;1.98;;
63005;SDS011;53704;52.532;6.426;2023-02-03T03:52:26;6.80;;;1.83;;
63005;SDS011;53704;52.532;6.426;2023-02-03T03:54:56;12.13;;;2.35;;
63005;SDS011;53704;52.532;6.426;2023-02-03T03:57:25;24.70;;;3.35;;
63005;SDS011;53704;52.532;6.426;2023-02-03T04:00:17;4.82;;;1.83;;
63005;SDS011;53704;52.532;6.426;2023-02-03T04:02:47;20.42;;;2.67;;
63005;SDS011;53704;52.532;6.426;2023-02-03T04:05:16;15.80;;;2.60;;
63005;SDS011;53704;52.532;6.426;2023-02-03T04:07:43;19.27;;;3.05;;
63005;SDS011;53704;52.532;6.426;2023-02-03T04:12:56;8.93;;;1.73;;
63005;SDS011;53704;52.532;6.426;2023-02-03T04:15:21;8.32;;;1.58;;
63005;SDS011;53704;52.532;6.426;2023-02-03T04:17:47;15.57;;;2.60;;
63005;SDS011;53704;52.532;6.426;2023-02-03T04:20:13;9.00;;;2.03;;
63005;SDS011;53704;52.532;6.426;2023-02-03T04:22:39;12.80;;;2.75;;
63005;SDS011;53704;52.532;6.426;2023-02-03T04:25:07;6.60;;;1.60;;
63005;SDS011;53704;52.532;6.426;2023-02-03T04:27:33;10.95;;;2.20;;
63005;SDS011;53704;52.532;6.426;2023-02-03T04:30:00;13.10;;;2.50;;
63005;SDS011;53704;52.532;6.426;2023-02-03T04:32:26;16.90;;;2.85;;
63005;SDS011;53704;52.532;6.426;2023-02-03T04:34:51;12.38;;;2.25;;
63005;SDS011;53704;52.532;6.426;2023-02-03T04:37:17;13.50;;;2.25;;
63005;SDS011;53704;52.532;6.426;2023-02-03T04:39:42;14.45;;;3.13;;
63005;SDS011;53704;52.532;6.426;2023-02-03T04:42:08;15.30;;;2.60;;
63005;SDS011;53704;52.532;6.426;2023-02-03T04:44:33;14.75;;;2.67;;
63005;SDS011;53704;52.532;6.426;2023-02-03T04:46:59;10.32;;;2.90;;
63005;SDS011;53704;52.532;6.426;2023-02-03T04:49:24;11.48;;;2.15;;
63005;SDS011;53704;52.532;6.426;2023-02-03T04:51:50;16.15;;;2.50;;
63005;SDS011;53704;52.532;6.426;2023-02-03T04:54:15;14.52;;;2.13;;
63005;SDS011;53704;52.532;6.426;2023-02-03T04:56:41;13.40;;;1.92;;
63005;SDS011;53704;52.532;6.426;2023-02-03T04:59:07;13.02;;;2.63;;
63005;SDS011;53704;52.532;6.426;2023-02-03T05:01:32;8.35;;;2.53;;
63005;SDS011;53704;52.532;6.426;2023-02-03T05:03:58;12.93;;;2.22;;
63005;SDS011;53704;52.532;6.426;2023-02-03T05:06:24;15.57;;;2.83;;
63005;SDS011;53704;52.532;6.426;2023-02-03T05:08:51;9.20;;;1.92;;
63005;SDS011;53704;52.532;6.426;2023-02-03T05:11:17;22.13;;;2.72;;
63005;SDS011;53704;52.532;6.426;2023-02-03T05:13:42;17.10;;;2.58;;
63005;SDS011;53704;52.532;6.426;2023-02-03T05:16:08;11.52;;;2.58;;
63005;SDS011;53704;52.532;6.426;2023-02-03T05:18:33;14.57;;;2.42;;
63005;SDS011;53704;52.532;6.426;2023-02-03T05:20:59;16.63;;;3.30;;
63005;SDS011;53704;52.532;6.426;2023-02-03T05:23:24;12.50;;;2.42;;
63005;SDS011;53704;52.532;6.426;2023-02-03T05:25:49;13.10;;;2.33;;
63005;SDS011;53704;52.532;6.426;2023-02-03T05:28:15;20.92;;;2.65;;
63005;SDS011;53704;52.532;6.426;2023-02-03T05:30:40;13.43;;;2.90;;
63005;SDS011;53704;52.532;6.426;2023-02-03T05:33:06;14.38;;;3.00;;
63005;SDS011;53704;52.532;6.426;2023-02-03T05:35:31;15.10;;;2.65;;
63005;SDS011;53704;52.532;6.426;2023-02-03T05:37:57;19.45;;;2.85;;
63005;SDS011;53704;52.532;6.426;2023-02-03T05:40:23;10.45;;;2.65;;
63005;SDS011;53704;52.532;6.426;2023-02-03T05:43:08;10.63;;;2.60;;
63005;SDS011;53704;52.532;6.426;2023-02-03T05:45:33;12.55;;;2.47;;
63005;SDS011;53704;52.532;6.426;2023-02-03T05:47:59;12.77;;;2.35;;
63005;SDS011;53704;52.532;6.426;2023-02-03T05:50:26;13.15;;;2.28;;
63005;SDS011;53704;52.532;6.426;2023-02-03T05:52:58;13.40;;;2.60;;
63005;SDS011;53704;52.532;6.426;2023-02-03T05:55:25;12.77;;;2.60;;
63005;SDS011;53704;52.532;6.426;2023-02-03T05:57:51;13.82;;;3.28;;
63005;SDS011;53704;52.532;6.426;2023-02-03T06:00:17;12.52;;;3.72;;
63005;SDS011;53704;52.532;6.426;2023-02-03T06:02:42;6.00;;;2.20;;
63005;SDS011;53704;52.532;6.426;2023-02-03T06:05:08;13.38;;;2.33;;
63005;SDS011;53704;52.532;6.426;2023-02-03T06:07:33;16.83;;;2.97;;
63005;SDS011;53704;52.532;6.426;2023-02-03T06:09:59;12.77;;;2.70;;
63005;SDS011;53704;52.532;6.426;2023-02-03T06:12:24;9.20;;;2.33;;
63005;SDS011;53704;52.532;6.426;2023-02-03T06:14:50;10.88;;;2.80;;
63005;SDS011;53704;52.532;6.426;2023-02-03T06:17:15;21.95;;;3.25;;
63005;SDS011;53704;52.532;6.426;2023-02-03T06:19:41;9.73;;;3.00;;
63005;SDS011;53704;52.532;6.426;2023-02-03T06:22:06;23.48;;;3.65;;
63005;SDS011;53704;52.532;6.426;2023-02-03T06:24:32;26.95;;;3.78;;
63005;SDS011;53704;52.532;6.426;2023-02-03T06:26:57;18.38;;;3.22;;
63005;SDS011;53704;52.532;6.426;2023-02-03T06:29:23;12.63;;;2.67;;
63005;SDS011;53704;52.532;6.426;2023-02-03T06:31:48;13.38;;;2.53;;
63005;SDS011;53704;52.532;6.426;2023-02-03T06:34:14;21.10;;;3.22;;
63005;SDS011;53704;52.532;6.426;2023-02-03T06:36:40;7.32;;;2.38;;
63005;SDS011;53704;52.532;6.426;2023-02-03T06:39:05;16.42;;;2.55;;
63005;SDS011;53704;52.532;6.426;2023-02-03T06:41:30;11.38;;;2.85;;
63005;SDS011;53704;52.532;6.426;2023-02-03T06:43:56;16.52;;;2.78;;
63005;SDS011;53704;52.532;6.426;2023-02-03T06:46:22;14.90;;;3.25;;
63005;SDS011;53704;52.532;6.426;2023-02-03T06:48:52;10.65;;;2.10;;
63005;SDS011;53704;52.532;6.426;2023-02-03T06:51:17;20.08;;;2.55;;
63005;SDS011;53704;52.532;6.426;2023-02-03T06:53:42;17.17;;;2.50;;
63005;SDS011;53704;52.532;6.426;2023-02-03T06:56:08;16.80;;;2.50;;
63005;SDS011;53704;52.532;6.426;2023-02-03T06:58:33;9.90;;;2.53;;
63005;SDS011;53704;52.532;6.426;2023-02-03T07:00:59;12.77;;;2.78;;
63005;SDS011;53704;52.532;6.426;2023-02-03T07:03:24;14.13;;;2.83;;
63005;SDS011;53704;52.532;6.426;2023-02-03T07:05:50;16.00;;;2.78;;
63005;SDS011;53704;52.532;6.426;2023-02-03T07:08:15;14.02;;;3.08;;
63005;SDS011;53704;52.532;6.426;2023-02-03T07:10:40;13.52;;;2.33;;
63005;SDS011;53704;52.532;6.426;2023-02-03T07:13:06;19.55;;;3.58;;
63005;SDS011;53704;52.532;6.426;2023-02-03T07:15:32;8.15;;;2.25;;
63005;SDS011;53704;52.532;6.426;2023-02-03T07:17:57;14.07;;;3.05;;
63005;SDS011;53704;52.532;6.426;2023-02-03T07:20:23;23.38;;;2.80;;
63005;SDS011;53704;52.532;6.426;2023-02-03T07:22:50;19.80;;;3.10;;
63005;SDS011;53704;52.532;6.426;2023-02-03T07:25:22;7.93;;;2.15;;
63005;SDS011;53704;52.532;6.426;2023-02-03T07:27:48;23.27;;;3.30;;
63005;SDS011;53704;52.532;6.426;2023-02-03T07:30:14;16.52;;;3.08;;
63005;SDS011;53704;52.532;6.426;2023-02-03T07:32:40;15.05;;;2.55;;
63005;SDS011;53704;52.532;6.426;2023-02-03T07:35:05;19.73;;;3.38;;
63005;SDS011;53704;52.532;6.426;2023-02-03T07:37:32;14.80;;;2.78;;
63005;SDS011;53704;52.532;6.426;2023-02-03T07:39:57;8.90;;;3.00;;
63005;SDS011;53704;52.532;6.426;2023-02-03T07:42:23;18.48;;;3.10;;
63005;SDS011;53704;52.532;6.426;2023-02-03T07:44:48;16.98;;;3.22;;
63005;SDS011;53704;52.532;6.426;2023-02-03T07:47:14;22.58;;;3.10;;
63005;SDS011;53704;52.532;6.426;2023-02-03T07:49:42;11.32;;;2.80;;
63005;SDS011;53704;52.532;6.426;2023-02-03T07:52:08;17.55;;;3.45;;
63005;SDS011;53704;52.532;6.426;2023-02-03T07:54:33;17.90;;;3.13;;
63005;SDS011;53704;52.532;6.426;2023-02-03T07:56:58;10.07;;;2.38;;
63005;SDS011;53704;52.532;6.426;2023-02-03T07:59:24;20.58;;;2.95;;
63005;SDS011;53704;52.532;6.426;2023-02-03T08:01:49;15.15;;;3.47;;
63005;SDS011;53704;52.532;6.426;2023-02-03T08:04:15;13.82;;;2.65;;
63005;SDS011;53704;52.532;6.426;2023-02-03T08:06:41;12.15;;;2.38;;
63005;SDS011;53704;52.532;6.426;2023-02-03T08:09:08;10.80;;;2.45;;
63005;SDS011;53704;52.532;6.426;2023-02-03T08:11:33;17.05;;;2.65;;
63005;SDS011;53704;52.532;6.426;2023-02-03T08:13:58;14.18;;;2.92;;
63005;SDS011;53704;52.532;6.426;2023-02-03T08:16:24;13.70;;;2.70;;
63005;SDS011;53704;52.532;6.426;2023-02-03T08:18:49;11.20;;;2.33;;
63005;SDS011;53704;52.532;6.426;2023-02-03T08:21:15;12.25;;;3.75;;
63005;SDS011;53704;52.532;6.426;2023-02-03T08:23:40;12.55;;;3.88;;
63005;SDS011;53704;52.532;6.426;2023-02-03T08:28:34;20.50;;;3.03;;
63005;SDS011;53704;52.532;6.426;2023-02-03T08:30:59;12.02;;;2.90;;
63005;SDS011;53704;52.532;6.426;2023-02-03T08:33:25;14.27;;;2.70;;
63005;SDS011;53704;52.532;6.426;2023-02-03T08:35:52;12.73;;;3.13;;
63005;SDS011;53704;52.532;6.426;2023-02-03T08:38:18;16.63;;;5.00;;
63005;SDS011;53704;52.532;6.426;2023-02-03T08:40:45;19.73;;;4.57;;
63005;SDS011;53704;52.532;6.426;2023-02-03T08:43:10;23.35;;;3.92;;
63005;SDS011;53704;52.532;6.426;2023-02-03T08:45:37;21.73;;;3.50;;
63005;SDS011;53704;52.532;6.426;2023-02-03T08:48:04;18.45;;;3.60;;
63005;SDS011;53704;52.532;6.426;2023-02-03T08:50:29;21.73;;;4.30;;
63005;SDS011;53704;52.532;6.426;2023-02-03T08:52:55;16.10;;;2.72;;
63005;SDS011;53704;52.532;6.426;2023-02-03T08:55:20;29.38;;;5.30;;
63005;SDS011;53704;52.532;6.426;2023-02-03T08:57:45;20.30;;;3.20;;
63005;SDS011;53704;52.532;6.426;2023-02-03T09:00:11;16.38;;;2.80;;
63005;SDS011;53704;52.532;6.426;2023-02-03T09:02:37;13.88;;;3.10;;
63005;SDS011;53704;52.532;6.426;2023-02-03T09:05:02;22.58;;;3.55;;
63005;SDS011;53704;52.532;6.426;2023-02-03T09:07:28;22.85;;;3.92;;
63005;SDS011;53704;52.532;6.426;2023-02-03T09:09:53;9.52;;;3.40;;
63005;SDS011;53704;52.532;6.426;2023-02-03T09:12:19;14.55;;;2.90;;
63005;SDS011;53704;52.532;6.426;2023-02-03T09:14:44;17.60;;;3.85;;
63005;SDS011;53704;52.532;6.426;2023-02-03T09:17:10;20.02;;;3.42;;
63005;SDS011;53704;52.532;6.426;2023-02-03T09:19:35;17.63;;;3.10;;
63005;SDS011;53704;52.532;6.426;2023-02-03T09:22:02;20.08;;;3.17;;
63005;SDS011;53704;52.532;6.426;2023-02-03T09:24:28;14.88;;;3.00;;
63005;SDS011;53704;52.532;6.426;2023-02-03T09:26:54;22.95;;;3.60;;
63005;SDS011;53704;52.532;6.426;2023-02-03T09:29:20;10.45;;;2.55;;
63005;SDS011;53704;52.532;6.426;2023-02-03T09:31:47;19.50;;;2.92;;
63005;SDS011;53704;52.532;6.426;2023-02-03T09:34:16;17.40;;;2.95;;
63005;SDS011;53704;52.532;6.426;2023-02-03T09:36:42;18.20;;;2.95;;
63005;SDS011;53704;52.532;6.426;2023-02-03T09:39:07;17.10;;;3.60;;
63005;SDS011;53704;52.532;6.426;2023-02-03T09:44:12;13.63;;;2.50;;
63005;SDS011;53704;52.532;6.426;2023-02-03T09:47:03;21.15;;;6.40;;
63005;SDS011;53704;52.532;6.426;2023-02-03T09:49:43;57.13;;;25.30;;
63005;SDS011;53704;52.532;6.426;2023-02-03T09:54:44;20.98;;;4.15;;
63005;SDS011;53704;52.532;6.426;2023-02-03T09:57:24;40.92;;;20.27;;
63005;SDS011;53704;52.532;6.426;2023-02-03T09:59:53;19.38;;;4.35;;
63005;SDS011;53704;52.532;6.426;2023-02-03T10:05:24;16.55;;;3.28;;
63005;SDS011;53704;52.532;6.426;2023-02-03T10:08:06;18.50;;;3.30;;
63005;SDS011;53704;52.532;6.426;2023-02-03T10:16:14;17.83;;;2.60;;
63005;SDS011;53704;52.532;6.426;2023-02-03T10:19:05;12.10;;;3.05;;
63005;SDS011;53704;52.532;6.426;2023-02-03T10:21:57;18.92;;;4.50;;
63005;SDS011;53704;52.532;6.426;2023-02-03T10:27:15;18.77;;;3.42;;
63005;SDS011;53704;52.532;6.426;2023-02-03T10:29:44;14.55;;;3.22;;
63005;SDS011;53704;52.532;6.426;2023-02-03T10:32:23;18.17;;;3.00;;
63005;SDS011;53704;52.532;6.426;2023-02-03T10:34:51;18.67;;;3.65;;
63005;SDS011;53704;52.532;6.426;2023-02-03T10:39:50;16.27;;;3.00;;
63005;SDS011;53704;52.532;6.426;2023-02-03T10:42:17;18.20;;;4.18;;
63005;SDS011;53704;52.532;6.426;2023-02-03T10:47:39;23.37;;;4.10;;
63005;SDS011;53704;52.532;6.426;2023-02-03T10:50:14;28.13;;;4.22;;
63005;SDS011;53704;52.532;6.426;2023-02-03T10:52:40;14.75;;;3.50;;
63005;SDS011;53704;52.532;6.426;2023-02-03T10:55:51;22.73;;;4.57;;
63005;SDS011;53704;52.532;6.426;2023-02-03T10:57:51;21.27;;;4.10;;
63005;SDS011;53704;52.532;6.426;2023-02-03T11:02:53;19.75;;;3.50;;
63005;SDS011;53704;52.532;6.426;2023-02-03T11:05:21;17.83;;;3.47;;
63005;SDS011;53704;52.532;6.426;2023-02-03T11:07:49;36.92;;;4.90;;
63005;SDS011;53704;52.532;6.426;2023-02-03T11:10:35;20.92;;;4.45;;
63005;SDS011;53704;52.532;6.426;2023-02-03T11:13:16;25.77;;;5.10;;
63005;SDS011;53704;52.532;6.426;2023-02-03T11:21:24;27.75;;;4.75;;
63005;SDS011;53704;52.532;6.426;2023-02-03T11:24:40;31.30;;;6.03;;
63005;SDS011;53704;52.532;6.426;2023-02-03T11:26:47;36.50;;;4.00;;
63005;SDS011;53704;52.532;6.426;2023-02-03T11:31:50;18.33;;;4.30;;
63005;SDS011;53704;52.532;6.426;2023-02-03T11:34:19;36.38;;;7.03;;
63005;SDS011;53704;52.532;6.426;2023-02-03T11:36:48;29.98;;;6.82;;
63005;SDS011;53704;52.532;6.426;2023-02-03T11:39:23;37.08;;;5.80;;
63005;SDS011;53704;52.532;6.426;2023-02-03T11:41:51;31.65;;;5.75;;
63005;SDS011;53704;52.532;6.426;2023-02-03T11:44:19;34.25;;;5.97;;
63005;SDS011;53704;52.532;6.426;2023-02-03T11:46:51;35.22;;;5.93;;
63005;SDS011;53704;52.532;6.426;2023-02-03T11:57:28;36.65;;;7.45;;
63005;SDS011;53704;52.532;6.426;2023-02-03T12:02:44;37.20;;;5.43;;
63005;SDS011;53704;52.532;6.426;2023-02-03T12:05:35;40.53;;;6.07;;
63005;SDS011;53704;52.532;6.426;2023-02-03T12:28:26;56.95;;;8.27;;
63005;SDS011;53704;52.532;6.426;2023-02-03T12:30:59;38.83;;;6.60;;
63005;SDS011;53704;52.532;6.426;2023-02-03T12:33:33;57.25;;;6.95;;
63005;SDS011;53704;52.532;6.426;2023-02-03T12:36:06;47.03;;;7.10;;
63005;SDS011;53704;52.532;6.426;2023-02-03T12:38:38;50.65;;;9.10;;
63005;SDS011;53704;52.532;6.426;2023-02-03T12:41:16;49.05;;;7.40;;
63005;SDS011;53704;52.532;6.426;2023-02-03T12:43:47;53.50;;;8.05;;
63005;SDS011;53704;52.532;6.426;2023-02-03T12:54:13;50.50;;;7.30;;
63005;SDS011;53704;52.532;6.426;2023-02-03T12:56:43;48.63;;;7.70;;
63005;SDS011;53704;52.532;6.426;2023-02-03T12:59:17;49.97;;;8.43;;
63005;SDS011;53704;52.532;6.426;2023-02-03T13:02:31;45.42;;;7.45;;
63005;SDS011;53704;52.532;6.426;2023-02-03T13:07:26;42.92;;;6.03;;
63005;SDS011;53704;52.532;6.426;2023-02-03T13:10:16;41.72;;;6.75;;
63005;SDS011;53704;52.532;6.426;2023-02-03T13:12:50;47.83;;;7.40;;
63005;SDS011;53704;52.532;6.426;2023-02-03T13:15:23;43.92;;;7.07;;
63005;SDS011;53704;52.532;6.426;2023-02-03T13:18:04;45.08;;;6.60;;
63005;SDS011;53704;52.532;6.426;2023-02-03T13:20:53;60.05;;;7.57;;
63005;SDS011;53704;52.532;6.426;2023-02-03T13:23:19;50.17;;;7.75;;
63005;SDS011;53704;52.532;6.426;2023-02-03T13:34:00;52.03;;;8.40;;
63005;SDS011;53704;52.532;6.426;2023-02-03T13:41:54;43.97;;;6.85;;
63005;SDS011;53704;52.532;6.426;2023-02-03T13:44:32;54.25;;;8.00;;
63005;SDS011;53704;52.532;6.426;2023-02-03T13:46:58;38.83;;;7.13;;
63005;SDS011;53704;52.532;6.426;2023-02-03T13:49:29;43.80;;;6.97;;
63005;SDS011;53704;52.532;6.426;2023-02-03T13:51:58;43.78;;;7.30;;
63005;SDS011;53704;52.532;6.426;2023-02-03T13:54:31;50.72;;;11.38;;
63005;SDS011;53704;52.532;6.426;2023-02-03T13:57:00;44.15;;;7.57;;
63005;SDS011;53704;52.532;6.426;2023-02-03T13:59:30;53.83;;;9.25;;
63005;SDS011;53704;52.532;6.426;2023-02-03T14:22:50;44.65;;;6.53;;
63005;SDS011;53704;52.532;6.426;2023-02-03T14:25:40;47.67;;;6.47;;
63005;SDS011;53704;52.532;6.426;2023-02-03T14:28:42;61.67;;;7.88;;
63005;SDS011;53704;52.532;6.426;2023-02-03T14:31:12;62.38;;;7.38;;
63005;SDS011;53704;52.532;6.426;2023-02-03T14:39:02;45.22;;;8.63;;
63005;SDS011;53704;52.532;6.426;2023-02-03T14:41:53;46.00;;;7.68;;
63005;SDS011;53704;52.532;6.426;2023-02-03T14:47:09;50.70;;;7.75;;
63005;SDS011;53704;52.532;6.426;2023-02-03T15:00:00;45.67;;;8.35;;
63005;SDS011;53704;52.532;6.426;2023-02-03T15:02:30;50.83;;;7.63;;
63005;SDS011;53704;52.532;6.426;2023-02-03T15:10:20;47.92;;;7.82;;
63005;SDS011;53704;52.532;6.426;2023-02-03T15:12:48;40.00;;;6.63;;
63005;SDS011;53704;52.532;6.426;2023-02-03T15:15:19;41.35;;;6.82;;
63005;SDS011;53704;52.532;6.426;2023-02-03T15:17:51;42.50;;;7.18;;
63005;SDS011;53704;52.532;6.426;2023-02-03T15:22:58;51.95;;;6.80;;
63005;SDS011;53704;52.532;6.426;2023-02-03T15:25:25;51.95;;;7.45;;
63005;SDS011;53704;52.532;6.426;2023-02-03T15:27:53;34.92;;;5.80;;
63005;SDS011;53704;52.532;6.426;2023-02-03T15:30:25;41.13;;;6.93;;
63005;SDS011;53704;52.532;6.426;2023-02-03T15:35:41;41.15;;;6.22;;
63005;SDS011;53704;52.532;6.426;2023-02-03T15:38:14;45.53;;;7.55;;
63005;SDS011;53704;52.532;6.426;2023-02-03T15:40:44;44.08;;;7.07;;
63005;SDS011;53704;52.532;6.426;2023-02-03T15:51:11;46.08;;;7.85;;
63005;SDS011;53704;52.532;6.426;2023-02-03T15:54:14;54.90;;;8.63;;
63005;SDS011;53704;52.532;6.426;2023-02-03T15:56:38;40.45;;;6.60;;
63005;SDS011;53704;52.532;6.426;2023-02-03T15:59:17;54.65;;;8.63;;
63005;SDS011;53704;52.532;6.426;2023-02-03T16:01:59;53.53;;;9.27;;
63005;SDS011;53704;52.532;6.426;2023-02-03T16:04:30;35.97;;;6.43;;
63005;SDS011;53704;52.532;6.426;2023-02-03T16:06:55;37.72;;;7.28;;
63005;SDS011;53704;52.532;6.426;2023-02-03T16:09:29;89.60;;;31.27;;
63005;SDS011;53704;52.532;6.426;2023-02-03T16:12:13;158.48;;;81.80;;
63005;SDS011;53704;52.532;6.426;2023-02-03T16:14:41;201.32;;;101.05;;
63005;SDS011;53704;52.532;6.426;2023-02-03T16:17:27;80.65;;;23.58;;
63005;SDS011;53704;52.532;6.426;2023-02-03T16:23:03;46.13;;;11.00;;
63005;SDS011;53704;52.532;6.426;2023-02-03T16:26:06;31.80;;;5.95;;
63005;SDS011;53704;52.532;6.426;2023-02-03T16:28:38;64.40;;;12.20;;
63005;SDS011;53704;52.532;6.426;2023-02-03T16:31:22;46.67;;;7.20;;
63005;SDS011;53704;52.532;6.426;2023-02-03T16:34:11;60.03;;;8.20;;
63005;SDS011;53704;52.532;6.426;2023-02-03T16:37:00;58.72;;;9.45;;
63005;SDS011;53704;52.532;6.426;2023-02-03T16:39:44;37.47;;;6.30;;
63005;SDS011;53704;52.532;6.426;2023-02-03T16:42:35;46.42;;;7.28;;
63005;SDS011;53704;52.532;6.426;2023-02-03T16:45:22;48.05;;;6.78;;
63005;SDS011;53704;52.532;6.426;2023-02-03T16:48:11;62.93;;;8.07;;
63005;SDS011;53704;52.532;6.426;2023-02-03T16:50:56;57.47;;;8.25;;
63005;SDS011;53704;52.532;6.426;2023-02-03T16:53:28;60.33;;;9.77;;
63005;SDS011;53704;52.532;6.426;2023-02-03T16:55:55;50.40;;;7.85;;
63005;SDS011;53704;52.532;6.426;2023-02-03T16:58:22;55.55;;;7.45;;
63005;SDS011;53704;52.532;6.426;2023-02-03T17:00:49;59.55;;;7.35;;
63005;SDS011;53704;52.532;6.426;2023-02-03T17:03:22;53.65;;;7.75;;
63005;SDS011;53704;52.532;6.426;2023-02-03T17:05:50;57.28;;;7.57;;
63005;SDS011;53704;52.532;6.426;2023-02-03T17:08:17;55.05;;;9.00;;
63005;SDS011;53704;52.532;6.426;2023-02-03T17:10:45;56.75;;;9.75;;
63005;SDS011;53704;52.532;6.426;2023-02-03T17:13:12;62.35;;;9.23;;
63005;SDS011;53704;52.532;6.426;2023-02-03T17:15:39;51.88;;;7.32;;
63005;SDS011;53704;52.532;6.426;2023-02-03T17:18:07;59.53;;;7.65;;
63005;SDS011;53704;52.532;6.426;2023-02-03T17:20:32;66.35;;;9.85;;
63005;SDS011;53704;52.532;6.426;2023-02-03T17:22:58;60.38;;;9.43;;
63005;SDS011;53704;52.532;6.426;2023-02-03T17:25:23;70.35;;;9.02;;
63005;SDS011;53704;52.532;6.426;2023-02-03T17:27:49;63.10;;;7.82;;
63005;SDS011;53704;52.532;6.426;2023-02-03T17:30:14;58.22;;;9.48;;
63005;SDS011;53704;52.532;6.426;2023-02-03T17:32:40;61.40;;;9.02;;
63005;SDS011;53704;52.532;6.426;2023-02-03T17:35:05;58.42;;;8.48;;
63005;SDS011;53704;52.532;6.426;2023-02-03T17:37:31;69.00;;;9.30;;
63005;SDS011;53704;52.532;6.426;2023-02-03T17:39:57;57.75;;;7.00;;
63005;SDS011;53704;52.532;6.426;2023-02-03T17:42:23;49.03;;;8.43;;
63005;SDS011;53704;52.532;6.426;2023-02-03T17:44:48;61.28;;;9.48;;
63005;SDS011;53704;52.532;6.426;2023-02-03T17:47:13;55.35;;;8.23;;